sensor_id;sensor_type;location;lat;lon;timestamp;P1;durP1;ratioP1;P2;durP2;ratioP2
22160;SDS011;49035;48.812;11.762;2022-07-18T00:00:08;5.00;;;3.27;;
22160;SDS011;49035;48.812;11.762;2022-07-18T00:02:34;3.90;;;3.20;;
22160;SDS011;49035;48.812;11.762;2022-07-18T00:05:00;5.00;;;3.63;;
22160;SDS011;49035;48.812;11.762;2022-07-18T00:07:26;3.97;;;3.20;;
22160;SDS011;49035;48.812;11.762;2022-07-18T00:09:51;7.90;;;3.63;;
22160;SDS011;49035;48.812;11.762;2022-07-18T00:12:17;6.57;;;3.90;;
22160;SDS011;49035;48.812;11.762;2022-07-18T00:14:43;6.40;;;3.57;;
22160;SDS011;49035;48.812;11.762;2022-07-18T00:17:09;4.40;;;3.47;;
22160;SDS011;49035;48.812;11.762;2022-07-18T00:19:35;3.70;;;3.10;;
22160;SDS011;49035;48.812;11.762;2022-07-18T00:22:02;4.73;;;3.07;;
22160;SDS011;49035;48.812;11.762;2022-07-18T00:24:29;6.43;;;3.80;;
22160;SDS011;49035;48.812;11.762;2022-07-18T00:26:54;3.57;;;3.27;;
22160;SDS011;49035;48.812;11.762;2022-07-18T00:29:20;4.30;;;3.50;;
22160;SDS011;49035;48.812;11.762;2022-07-18T00:31:46;4.73;;;3.33;;
22160;SDS011;49035;48.812;11.762;2022-07-18T00:34:11;6.60;;;4.07;;
22160;SDS011;49035;48.812;11.762;2022-07-18T00:36:37;4.83;;;3.63;;
22160;SDS011;49035;48.812;11.762;2022-07-18T00:39:03;6.67;;;3.67;;
22160;SDS011;49035;48.812;11.762;2022-07-18T00:41:29;5.20;;;3.60;;
22160;SDS011;49035;48.812;11.762;2022-07-18T00:43:54;4.60;;;3.53;;
22160;SDS011;49035;48.812;11.762;2022-07-18T00:46:22;4.63;;;3.47;;
22160;SDS011;49035;48.812;11.762;2022-07-18T00:48:49;5.30;;;3.53;;
22160;SDS011;49035;48.812;11.762;2022-07-18T00:51:15;6.40;;;3.77;;
22160;SDS011;49035;48.812;11.762;2022-07-18T00:53:42;10.90;;;3.97;;
22160;SDS011;49035;48.812;11.762;2022-07-18T00:56:08;8.90;;;4.20;;
22160;SDS011;49035;48.812;11.762;2022-07-18T00:58:35;5.93;;;4.30;;
22160;SDS011;49035;48.812;11.762;2022-07-18T01:01:01;4.80;;;3.97;;
22160;SDS011;49035;48.812;11.762;2022-07-18T01:03:45;6.53;;;3.63;;
22160;SDS011;49035;48.812;11.762;2022-07-18T01:06:11;3.77;;;3.27;;
22160;SDS011;49035;48.812;11.762;2022-07-18T01:08:37;4.93;;;3.20;;
22160;SDS011;49035;48.812;11.762;2022-07-18T01:11:06;5.80;;;2.90;;
22160;SDS011;49035;48.812;11.762;2022-07-18T01:13:32;3.27;;;2.90;;
22160;SDS011;49035;48.812;11.762;2022-07-18T01:15:58;7.20;;;3.27;;
22160;SDS011;49035;48.812;11.762;2022-07-18T01:18:24;3.17;;;2.97;;
22160;SDS011;49035;48.812;11.762;2022-07-18T01:20:49;3.77;;;3.03;;
22160;SDS011;49035;48.812;11.762;2022-07-18T01:23:15;3.90;;;3.60;;
22160;SDS011;49035;48.812;11.762;2022-07-18T01:25:41;3.83;;;3.30;;
22160;SDS011;49035;48.812;11.762;2022-07-18T01:28:07;4.10;;;3.57;;
22160;SDS011;49035;48.812;11.762;2022-07-18T01:30:33;7.60;;;3.90;;
22160;SDS011;49035;48.812;11.762;2022-07-18T01:32:59;4.10;;;3.70;;
22160;SDS011;49035;48.812;11.762;2022-07-18T01:35:27;5.10;;;3.60;;
22160;SDS011;49035;48.812;11.762;2022-07-18T01:37:54;6.87;;;3.80;;
22160;SDS011;49035;48.812;11.762;2022-07-18T01:40:22;5.43;;;3.70;;
22160;SDS011;49035;48.812;11.762;2022-07-18T01:42:48;4.30;;;3.40;;
22160;SDS011;49035;48.812;11.762;2022-07-18T01:47:43;7.87;;;3.83;;
22160;SDS011;49035;48.812;11.762;2022-07-18T01:50:10;4.23;;;3.80;;
22160;SDS011;49035;48.812;11.762;2022-07-18T01:52:36;3.63;;;3.10;;
22160;SDS011;49035;48.812;11.762;2022-07-18T01:55:03;4.63;;;3.30;;
22160;SDS011;49035;48.812;11.762;2022-07-18T01:57:31;7.47;;;3.70;;
22160;SDS011;49035;48.812;11.762;2022-07-18T01:59:56;4.43;;;3.83;;
22160;SDS011;49035;48.812;11.762;2022-07-18T02:02:22;4.13;;;3.60;;
22160;SDS011;49035;48.812;11.762;2022-07-18T02:04:48;4.57;;;3.30;;
22160;SDS011;49035;48.812;11.762;2022-07-18T02:07:32;4.23;;;3.67;;
22160;SDS011;49035;48.812;11.762;2022-07-18T02:10:01;6.07;;;3.80;;
22160;SDS011;49035;48.812;11.762;2022-07-18T02:12:35;5.07;;;4.03;;
22160;SDS011;49035;48.812;11.762;2022-07-18T02:15:02;6.80;;;4.13;;
22160;SDS011;49035;48.812;11.762;2022-07-18T02:17:29;6.40;;;3.93;;
22160;SDS011;49035;48.812;11.762;2022-07-18T02:19:55;4.10;;;3.70;;
22160;SDS011;49035;48.812;11.762;2022-07-18T02:22:21;4.77;;;3.93;;
22160;SDS011;49035;48.812;11.762;2022-07-18T02:24:46;5.57;;;3.87;;
22160;SDS011;49035;48.812;11.762;2022-07-18T02:27:12;4.73;;;4.20;;
22160;SDS011;49035;48.812;11.762;2022-07-18T02:29:38;5.50;;;4.90;;
22160;SDS011;49035;48.812;11.762;2022-07-18T02:32:04;4.47;;;4.07;;
22160;SDS011;49035;48.812;11.762;2022-07-18T02:34:29;4.20;;;3.80;;
22160;SDS011;49035;48.812;11.762;2022-07-18T02:36:55;6.83;;;3.87;;
22160;SDS011;49035;48.812;11.762;2022-07-18T02:39:21;4.77;;;3.60;;
22160;SDS011;49035;48.812;11.762;2022-07-18T02:41:46;7.73;;;3.57;;
22160;SDS011;49035;48.812;11.762;2022-07-18T02:44:12;4.97;;;4.17;;
22160;SDS011;49035;48.812;11.762;2022-07-18T02:46:38;6.00;;;3.97;;
22160;SDS011;49035;48.812;11.762;2022-07-18T02:49:03;5.80;;;3.97;;
22160;SDS011;49035;48.812;11.762;2022-07-18T02:51:29;5.13;;;3.73;;
22160;SDS011;49035;48.812;11.762;2022-07-18T02:53:55;4.03;;;3.60;;
22160;SDS011;49035;48.812;11.762;2022-07-18T02:56:21;7.93;;;3.90;;
22160;SDS011;49035;48.812;11.762;2022-07-18T02:58:46;6.00;;;3.80;;
22160;SDS011;49035;48.812;11.762;2022-07-18T03:01:12;4.37;;;3.57;;
22160;SDS011;49035;48.812;11.762;2022-07-18T03:03:37;4.27;;;3.87;;
22160;SDS011;49035;48.812;11.762;2022-07-18T03:06:04;4.77;;;4.10;;
22160;SDS011;49035;48.812;11.762;2022-07-18T03:08:33;5.53;;;4.00;;
22160;SDS011;49035;48.812;11.762;2022-07-18T03:10:58;4.53;;;3.90;;
22160;SDS011;49035;48.812;11.762;2022-07-18T03:13:24;4.43;;;4.00;;
22160;SDS011;49035;48.812;11.762;2022-07-18T03:15:49;6.07;;;4.30;;
22160;SDS011;49035;48.812;11.762;2022-07-18T03:18:15;6.27;;;4.10;;
22160;SDS011;49035;48.812;11.762;2022-07-18T03:20:42;6.43;;;4.30;;
22160;SDS011;49035;48.812;11.762;2022-07-18T03:23:08;6.57;;;4.40;;
22160;SDS011;49035;48.812;11.762;2022-07-18T03:25:34;4.87;;;4.03;;
22160;SDS011;49035;48.812;11.762;2022-07-18T03:28:00;8.00;;;4.80;;
22160;SDS011;49035;48.812;11.762;2022-07-18T03:30:26;5.53;;;4.37;;
22160;SDS011;49035;48.812;11.762;2022-07-18T03:32:51;5.70;;;4.43;;
22160;SDS011;49035;48.812;11.762;2022-07-18T03:35:17;7.10;;;5.00;;
22160;SDS011;49035;48.812;11.762;2022-07-18T03:37:43;6.43;;;4.60;;
22160;SDS011;49035;48.812;11.762;2022-07-18T03:40:09;4.87;;;4.00;;
22160;SDS011;49035;48.812;11.762;2022-07-18T03:42:38;5.07;;;4.40;;
22160;SDS011;49035;48.812;11.762;2022-07-18T03:45:05;4.43;;;3.87;;
22160;SDS011;49035;48.812;11.762;2022-07-18T03:47:32;4.70;;;3.87;;
22160;SDS011;49035;48.812;11.762;2022-07-18T03:49:57;4.63;;;4.20;;
22160;SDS011;49035;48.812;11.762;2022-07-18T03:52:23;6.20;;;3.97;;
22160;SDS011;49035;48.812;11.762;2022-07-18T03:54:49;8.10;;;4.73;;
22160;SDS011;49035;48.812;11.762;2022-07-18T03:57:14;10.57;;;4.57;;
22160;SDS011;49035;48.812;11.762;2022-07-18T03:59:43;6.77;;;5.03;;
22160;SDS011;49035;48.812;11.762;2022-07-18T04:02:08;9.80;;;5.07;;
22160;SDS011;49035;48.812;11.762;2022-07-18T04:04:34;6.23;;;4.87;;
22160;SDS011;49035;48.812;11.762;2022-07-18T04:07:00;7.60;;;5.13;;
22160;SDS011;49035;48.812;11.762;2022-07-18T04:09:26;6.07;;;4.90;;
22160;SDS011;49035;48.812;11.762;2022-07-18T04:11:52;7.57;;;4.70;;
22160;SDS011;49035;48.812;11.762;2022-07-18T04:14:17;9.00;;;5.43;;
22160;SDS011;49035;48.812;11.762;2022-07-18T04:16:43;5.93;;;4.93;;
22160;SDS011;49035;48.812;11.762;2022-07-18T04:19:09;6.37;;;5.17;;
22160;SDS011;49035;48.812;11.762;2022-07-18T04:21:35;9.00;;;6.20;;
22160;SDS011;49035;48.812;11.762;2022-07-18T04:24:00;10.10;;;7.83;;
22160;SDS011;49035;48.812;11.762;2022-07-18T04:26:26;10.93;;;8.13;;
22160;SDS011;49035;48.812;11.762;2022-07-18T04:28:52;10.67;;;7.53;;
22160;SDS011;49035;48.812;11.762;2022-07-18T04:31:17;7.77;;;6.10;;
22160;SDS011;49035;48.812;11.762;2022-07-18T04:33:46;6.70;;;4.83;;
22160;SDS011;49035;48.812;11.762;2022-07-18T04:36:14;5.57;;;3.40;;
22160;SDS011;49035;48.812;11.762;2022-07-18T04:38:40;4.83;;;3.17;;
22160;SDS011;49035;48.812;11.762;2022-07-18T04:41:06;3.87;;;2.60;;
22160;SDS011;49035;48.812;11.762;2022-07-18T04:43:32;4.15;;;2.75;;
22160;SDS011;49035;48.812;11.762;2022-07-18T04:46:01;7.78;;;2.45;;
22160;SDS011;49035;48.812;11.762;2022-07-18T04:48:29;8.02;;;2.20;;
22160;SDS011;49035;48.812;11.762;2022-07-18T04:50:55;5.18;;;2.03;;
22160;SDS011;49035;48.812;11.762;2022-07-18T04:53:21;5.20;;;2.10;;
22160;SDS011;49035;48.812;11.762;2022-07-18T04:55:46;7.38;;;2.38;;
22160;SDS011;49035;48.812;11.762;2022-07-18T04:58:14;3.30;;;2.10;;
22160;SDS011;49035;48.812;11.762;2022-07-18T05:00:40;2.65;;;1.70;;
22160;SDS011;49035;48.812;11.762;2022-07-18T05:03:24;3.45;;;1.83;;
22160;SDS011;49035;48.812;11.762;2022-07-18T05:05:54;3.83;;;2.58;;
22160;SDS011;49035;48.812;11.762;2022-07-18T05:08:20;5.03;;;2.05;;
22160;SDS011;49035;48.812;11.762;2022-07-18T05:10:53;6.07;;;2.42;;
22160;SDS011;49035;48.812;11.762;2022-07-18T05:13:22;8.00;;;2.50;;
22160;SDS011;49035;48.812;11.762;2022-07-18T05:15:54;6.15;;;2.30;;
22160;SDS011;49035;48.812;11.762;2022-07-18T05:18:20;6.68;;;2.58;;
22160;SDS011;49035;48.812;11.762;2022-07-18T05:20:48;7.90;;;2.50;;
22160;SDS011;49035;48.812;11.762;2022-07-18T05:23:23;6.93;;;2.50;;
22160;SDS011;49035;48.812;11.762;2022-07-18T05:26:10;7.25;;;2.63;;
22160;SDS011;49035;48.812;11.762;2022-07-18T05:32:15;8.43;;;3.53;;
22160;SDS011;49035;48.812;11.762;2022-07-18T05:34:41;7.45;;;2.58;;
22160;SDS011;49035;48.812;11.762;2022-07-18T05:37:06;7.32;;;2.38;;
22160;SDS011;49035;48.812;11.762;2022-07-18T05:39:32;7.43;;;2.67;;
22160;SDS011;49035;48.812;11.762;2022-07-18T05:41:58;3.08;;;2.47;;
22160;SDS011;49035;48.812;11.762;2022-07-18T05:44:23;2.88;;;2.17;;
22160;SDS011;49035;48.812;11.762;2022-07-18T05:46:49;6.90;;;2.00;;
22160;SDS011;49035;48.812;11.762;2022-07-18T05:49:16;2.97;;;2.28;;
22160;SDS011;49035;48.812;11.762;2022-07-18T05:51:42;6.10;;;2.50;;
22160;SDS011;49035;48.812;11.762;2022-07-18T05:54:07;4.20;;;2.30;;
22160;SDS011;49035;48.812;11.762;2022-07-18T05:56:33;2.70;;;1.90;;
22160;SDS011;49035;48.812;11.762;2022-07-18T05:59:02;4.75;;;2.33;;
22160;SDS011;49035;48.812;11.762;2022-07-18T06:01:29;2.78;;;1.95;;
22160;SDS011;49035;48.812;11.762;2022-07-18T06:03:55;4.65;;;1.90;;
22160;SDS011;49035;48.812;11.762;2022-07-18T06:06:20;4.70;;;2.30;;
22160;SDS011;49035;48.812;11.762;2022-07-18T06:08:46;9.88;;;2.33;;
22160;SDS011;49035;48.812;11.762;2022-07-18T06:11:11;2.28;;;1.90;;
22160;SDS011;49035;48.812;11.762;2022-07-18T06:13:38;7.82;;;2.33;;
22160;SDS011;49035;48.812;11.762;2022-07-18T06:16:05;4.10;;;2.30;;
22160;SDS011;49035;48.812;11.762;2022-07-18T06:18:31;6.72;;;1.90;;
22160;SDS011;49035;48.812;11.762;2022-07-18T06:20:59;8.68;;;2.20;;
22160;SDS011;49035;48.812;11.762;2022-07-18T06:23:26;5.25;;;2.33;;
22160;SDS011;49035;48.812;11.762;2022-07-18T06:25:51;5.57;;;2.67;;
22160;SDS011;49035;48.812;11.762;2022-07-18T06:28:17;5.22;;;1.83;;
22160;SDS011;49035;48.812;11.762;2022-07-18T06:30:43;6.60;;;2.22;;
22160;SDS011;49035;48.812;11.762;2022-07-18T06:33:17;5.28;;;2.35;;
22160;SDS011;49035;48.812;11.762;2022-07-18T06:35:43;2.92;;;2.25;;
22160;SDS011;49035;48.812;11.762;2022-07-18T06:38:12;4.03;;;2.50;;
22160;SDS011;49035;48.812;11.762;2022-07-18T06:40:39;4.85;;;2.30;;
22160;SDS011;49035;48.812;11.762;2022-07-18T06:43:04;3.53;;;2.00;;
22160;SDS011;49035;48.812;11.762;2022-07-18T06:45:31;3.92;;;2.08;;
22160;SDS011;49035;48.812;11.762;2022-07-18T06:48:00;3.80;;;2.10;;
22160;SDS011;49035;48.812;11.762;2022-07-18T06:50:26;3.75;;;2.15;;
22160;SDS011;49035;48.812;11.762;2022-07-18T06:52:52;3.05;;;1.90;;
22160;SDS011;49035;48.812;11.762;2022-07-18T06:55:18;5.13;;;2.17;;
22160;SDS011;49035;48.812;11.762;2022-07-18T06:57:43;8.00;;;2.45;;
22160;SDS011;49035;48.812;11.762;2022-07-18T07:00:10;2.83;;;1.80;;
22160;SDS011;49035;48.812;11.762;2022-07-18T07:02:42;4.78;;;1.83;;
22160;SDS011;49035;48.812;11.762;2022-07-18T07:05:14;3.47;;;2.20;;
22160;SDS011;49035;48.812;11.762;2022-07-18T07:07:41;6.50;;;2.15;;
22160;SDS011;49035;48.812;11.762;2022-07-18T07:10:07;4.20;;;2.42;;
22160;SDS011;49035;48.812;11.762;2022-07-18T07:12:40;5.45;;;2.10;;
22160;SDS011;49035;48.812;11.762;2022-07-18T07:15:07;4.03;;;2.30;;
22160;SDS011;49035;48.812;11.762;2022-07-18T07:17:34;6.78;;;2.28;;
22160;SDS011;49035;48.812;11.762;2022-07-18T07:20:00;7.35;;;2.20;;
22160;SDS011;49035;48.812;11.762;2022-07-18T07:22:25;6.88;;;1.95;;
22160;SDS011;49035;48.812;11.762;2022-07-18T07:24:51;2.00;;;1.75;;
22160;SDS011;49035;48.812;11.762;2022-07-18T07:27:17;4.85;;;2.10;;
22160;SDS011;49035;48.812;11.762;2022-07-18T07:29:43;4.60;;;2.22;;
22160;SDS011;49035;48.812;11.762;2022-07-18T07:32:09;5.07;;;1.85;;
22160;SDS011;49035;48.812;11.762;2022-07-18T07:34:34;6.28;;;2.15;;
22160;SDS011;49035;48.812;11.762;2022-07-18T07:37:00;3.15;;;1.48;;
22160;SDS011;49035;48.812;11.762;2022-07-18T07:39:34;3.65;;;1.92;;
22160;SDS011;49035;48.812;11.762;2022-07-18T07:41:59;3.33;;;1.85;;
22160;SDS011;49035;48.812;11.762;2022-07-18T07:44:25;4.43;;;1.80;;
22160;SDS011;49035;48.812;11.762;2022-07-18T07:46:50;5.10;;;1.70;;
22160;SDS011;49035;48.812;11.762;2022-07-18T07:49:16;4.75;;;1.85;;
22160;SDS011;49035;48.812;11.762;2022-07-18T07:51:42;3.22;;;1.52;;
22160;SDS011;49035;48.812;11.762;2022-07-18T07:54:07;6.43;;;1.80;;
22160;SDS011;49035;48.812;11.762;2022-07-18T07:56:33;5.13;;;1.83;;
22160;SDS011;49035;48.812;11.762;2022-07-18T07:58:58;6.32;;;1.80;;
22160;SDS011;49035;48.812;11.762;2022-07-18T08:01:26;4.45;;;1.90;;
22160;SDS011;49035;48.812;11.762;2022-07-18T08:03:51;3.47;;;1.88;;
22160;SDS011;49035;48.812;11.762;2022-07-18T08:06:17;5.38;;;1.90;;
22160;SDS011;49035;48.812;11.762;2022-07-18T08:08:43;2.38;;;1.50;;
22160;SDS011;49035;48.812;11.762;2022-07-18T08:11:09;2.10;;;1.45;;
22160;SDS011;49035;48.812;11.762;2022-07-18T08:13:34;4.95;;;1.85;;
22160;SDS011;49035;48.812;11.762;2022-07-18T08:16:00;1.80;;;1.35;;
22160;SDS011;49035;48.812;11.762;2022-07-18T08:18:25;3.38;;;1.83;;
22160;SDS011;49035;48.812;11.762;2022-07-18T08:20:51;3.72;;;1.90;;
22160;SDS011;49035;48.812;11.762;2022-07-18T08:23:17;2.65;;;1.58;;
22160;SDS011;49035;48.812;11.762;2022-07-18T08:25:43;2.38;;;1.48;;
22160;SDS011;49035;48.812;11.762;2022-07-18T08:28:09;3.05;;;1.77;;
22160;SDS011;49035;48.812;11.762;2022-07-18T08:30:36;2.60;;;1.55;;
22160;SDS011;49035;48.812;11.762;2022-07-18T08:33:03;2.20;;;1.70;;
22160;SDS011;49035;48.812;11.762;2022-07-18T08:35:30;7.00;;;1.80;;
22160;SDS011;49035;48.812;11.762;2022-07-18T08:37:59;3.75;;;1.42;;
22160;SDS011;49035;48.812;11.762;2022-07-18T08:40:26;1.45;;;1.33;;
22160;SDS011;49035;48.812;11.762;2022-07-18T08:42:53;3.85;;;1.67;;
22160;SDS011;49035;48.812;11.762;2022-07-18T08:45:21;4.18;;;1.80;;
22160;SDS011;49035;48.812;11.762;2022-07-18T08:47:48;5.78;;;1.63;;
22160;SDS011;49035;48.812;11.762;2022-07-18T08:50:14;1.65;;;1.48;;
22160;SDS011;49035;48.812;11.762;2022-07-18T08:52:40;2.00;;;1.60;;
22160;SDS011;49035;48.812;11.762;2022-07-18T08:55:06;4.25;;;1.67;;
22160;SDS011;49035;48.812;11.762;2022-07-18T08:57:33;3.65;;;1.45;;
22160;SDS011;49035;48.812;11.762;2022-07-18T08:59:58;1.90;;;1.40;;
22160;SDS011;49035;48.812;11.762;2022-07-18T09:02:25;4.70;;;1.77;;
22160;SDS011;49035;48.812;11.762;2022-07-18T09:04:52;2.10;;;1.33;;
22160;SDS011;49035;48.812;11.762;2022-07-18T09:07:25;2.33;;;1.42;;
22160;SDS011;49035;48.812;11.762;2022-07-18T09:09:59;2.42;;;1.50;;
22160;SDS011;49035;48.812;11.762;2022-07-18T09:12:28;1.92;;;1.23;;
22160;SDS011;49035;48.812;11.762;2022-07-18T09:15:03;3.95;;;1.45;;
22160;SDS011;49035;48.812;11.762;2022-07-18T09:17:32;2.50;;;1.38;;
22160;SDS011;49035;48.812;11.762;2022-07-18T09:22:38;5.60;;;1.40;;
22160;SDS011;49035;48.812;11.762;2022-07-18T09:27:34;4.85;;;1.55;;
22160;SDS011;49035;48.812;11.762;2022-07-18T09:32:52;3.97;;;1.50;;
22160;SDS011;49035;48.812;11.762;2022-07-18T09:35:23;3.03;;;1.45;;
22160;SDS011;49035;48.812;11.762;2022-07-18T09:40:26;3.75;;;1.42;;
22160;SDS011;49035;48.812;11.762;2022-07-18T09:43:01;1.73;;;1.20;;
22160;SDS011;49035;48.812;11.762;2022-07-18T09:45:30;5.28;;;1.80;;
22160;SDS011;49035;48.812;11.762;2022-07-18T09:47:59;2.58;;;1.50;;
22160;SDS011;49035;48.812;11.762;2022-07-18T09:53:10;2.00;;;1.48;;
22160;SDS011;49035;48.812;11.762;2022-07-18T09:55:45;2.60;;;1.38;;
22160;SDS011;49035;48.812;11.762;2022-07-18T09:58:20;3.47;;;1.48;;
22160;SDS011;49035;48.812;11.762;2022-07-18T10:00:47;2.08;;;1.40;;
22160;SDS011;49035;48.812;11.762;2022-07-18T10:03:13;3.20;;;1.58;;
22160;SDS011;49035;48.812;11.762;2022-07-18T10:05:42;4.40;;;1.70;;
22160;SDS011;49035;48.812;11.762;2022-07-18T10:08:09;2.08;;;1.50;;
22160;SDS011;49035;48.812;11.762;2022-07-18T10:10:37;3.28;;;1.30;;
22160;SDS011;49035;48.812;11.762;2022-07-18T10:13:04;3.63;;;1.65;;
22160;SDS011;49035;48.812;11.762;2022-07-18T10:15:31;2.17;;;1.45;;
22160;SDS011;49035;48.812;11.762;2022-07-18T10:17:59;1.55;;;1.20;;
22160;SDS011;49035;48.812;11.762;2022-07-18T10:20:36;1.63;;;1.27;;
22160;SDS011;49035;48.812;11.762;2022-07-18T10:23:07;5.80;;;1.58;;
22160;SDS011;49035;48.812;11.762;2022-07-18T10:25:44;4.05;;;1.30;;
22160;SDS011;49035;48.812;11.762;2022-07-18T10:31:28;2.92;;;1.35;;
22160;SDS011;49035;48.812;11.762;2022-07-18T10:36:33;3.70;;;1.52;;
22160;SDS011;49035;48.812;11.762;2022-07-18T10:42:18;2.15;;;1.40;;
22160;SDS011;49035;48.812;11.762;2022-07-18T11:00:23;5.38;;;1.20;;
22160;SDS011;49035;48.812;11.762;2022-07-18T11:03:11;2.60;;;1.33;;
22160;SDS011;49035;48.812;11.762;2022-07-18T11:05:43;3.03;;;1.40;;
22160;SDS011;49035;48.812;11.762;2022-07-18T11:21:16;2.22;;;1.45;;
22160;SDS011;49035;48.812;11.762;2022-07-18T11:23:42;4.15;;;1.40;;
22160;SDS011;49035;48.812;11.762;2022-07-18T11:26:13;2.13;;;1.55;;
22160;SDS011;49035;48.812;11.762;2022-07-18T11:28:43;1.70;;;1.48;;
22160;SDS011;49035;48.812;11.762;2022-07-18T11:31:11;1.50;;;1.33;;
22160;SDS011;49035;48.812;11.762;2022-07-18T11:33:38;2.08;;;1.48;;
22160;SDS011;49035;48.812;11.762;2022-07-18T11:36:10;3.15;;;1.27;;
22160;SDS011;49035;48.812;11.762;2022-07-18T11:38:38;8.63;;;1.48;;
22160;SDS011;49035;48.812;11.762;2022-07-18T11:41:12;3.00;;;1.67;;
22160;SDS011;49035;48.812;11.762;2022-07-18T11:43:37;2.03;;;1.50;;
22160;SDS011;49035;48.812;11.762;2022-07-18T11:46:04;1.67;;;1.20;;
22160;SDS011;49035;48.812;11.762;2022-07-18T11:48:36;2.40;;;1.27;;
22160;SDS011;49035;48.812;11.762;2022-07-18T11:51:07;2.08;;;1.20;;
22160;SDS011;49035;48.812;11.762;2022-07-18T11:53:34;2.30;;;1.33;;
22160;SDS011;49035;48.812;11.762;2022-07-18T11:56:04;2.08;;;1.50;;
22160;SDS011;49035;48.812;11.762;2022-07-18T11:58:34;2.90;;;1.55;;
22160;SDS011;49035;48.812;11.762;2022-07-18T12:01:02;1.92;;;1.13;;
22160;SDS011;49035;48.812;11.762;2022-07-18T12:03:28;4.00;;;1.52;;
22160;SDS011;49035;48.812;11.762;2022-07-18T12:05:55;1.40;;;1.10;;
22160;SDS011;49035;48.812;11.762;2022-07-18T12:08:31;1.77;;;1.50;;
22160;SDS011;49035;48.812;11.762;2022-07-18T12:11:05;5.68;;;1.17;;
22160;SDS011;49035;48.812;11.762;2022-07-18T12:16:27;2.00;;;1.23;;
22160;SDS011;49035;48.812;11.762;2022-07-18T12:19:11;4.47;;;1.30;;
22160;SDS011;49035;48.812;11.762;2022-07-18T12:21:50;2.90;;;1.17;;
22160;SDS011;49035;48.812;11.762;2022-07-18T12:27:16;4.53;;;1.23;;
22160;SDS011;49035;48.812;11.762;2022-07-18T12:30:07;1.27;;;1.15;;
22160;SDS011;49035;48.812;11.762;2022-07-18T12:37:55;1.38;;;1.00;;
22160;SDS011;49035;48.812;11.762;2022-07-18T12:40:23;1.10;;;0.90;;
22160;SDS011;49035;48.812;11.762;2022-07-18T12:43:07;1.73;;;1.20;;
22160;SDS011;49035;48.812;11.762;2022-07-18T12:45:35;2.17;;;1.48;;
22160;SDS011;49035;48.812;11.762;2022-07-18T12:48:01;1.80;;;1.10;;
22160;SDS011;49035;48.812;11.762;2022-07-18T12:50:27;1.20;;;1.10;;
22160;SDS011;49035;48.812;11.762;2022-07-18T12:52:53;3.15;;;1.15;;
22160;SDS011;49035;48.812;11.762;2022-07-18T12:55:18;2.13;;;1.20;;
22160;SDS011;49035;48.812;11.762;2022-07-18T12:57:44;3.25;;;1.50;;
22160;SDS011;49035;48.812;11.762;2022-07-18T13:00:10;3.10;;;1.00;;
22160;SDS011;49035;48.812;11.762;2022-07-18T13:02:36;2.75;;;1.20;;
22160;SDS011;49035;48.812;11.762;2022-07-18T13:05:02;1.63;;;0.95;;
22160;SDS011;49035;48.812;11.762;2022-07-18T13:07:28;1.33;;;1.10;;
22160;SDS011;49035;48.812;11.762;2022-07-18T13:09:53;3.42;;;1.20;;
22160;SDS011;49035;48.812;11.762;2022-07-18T13:12:19;1.83;;;1.10;;
22160;SDS011;49035;48.812;11.762;2022-07-18T13:14:46;2.90;;;1.33;;
22160;SDS011;49035;48.812;11.762;2022-07-18T13:17:11;1.42;;;1.27;;
22160;SDS011;49035;48.812;11.762;2022-07-18T13:19:37;1.85;;;1.23;;
22160;SDS011;49035;48.812;11.762;2022-07-18T13:22:03;2.17;;;1.08;;
22160;SDS011;49035;48.812;11.762;2022-07-18T13:24:29;2.75;;;1.10;;
22160;SDS011;49035;48.812;11.762;2022-07-18T13:26:55;2.65;;;1.38;;
22160;SDS011;49035;48.812;11.762;2022-07-18T13:29:20;1.85;;;1.20;;
22160;SDS011;49035;48.812;11.762;2022-07-18T13:31:46;1.30;;;1.20;;
22160;SDS011;49035;48.812;11.762;2022-07-18T13:34:13;2.00;;;1.13;;
22160;SDS011;49035;48.812;11.762;2022-07-18T13:36:39;1.48;;;1.38;;
22160;SDS011;49035;48.812;11.762;2022-07-18T13:39:04;1.50;;;1.40;;
22160;SDS011;49035;48.812;11.762;2022-07-18T13:41:30;1.50;;;1.35;;
22160;SDS011;49035;48.812;11.762;2022-07-18T13:43:56;3.20;;;1.50;;
22160;SDS011;49035;48.812;11.762;2022-07-18T13:46:22;2.45;;;1.20;;
22160;SDS011;49035;48.812;11.762;2022-07-18T13:48:47;1.73;;;1.35;;
22160;SDS011;49035;48.812;11.762;2022-07-18T13:51:14;6.68;;;1.30;;
22160;SDS011;49035;48.812;11.762;2022-07-18T13:53:44;2.78;;;1.55;;
22160;SDS011;49035;48.812;11.762;2022-07-18T13:56:10;4.85;;;1.30;;
22160;SDS011;49035;48.812;11.762;2022-07-18T13:58:38;1.20;;;1.15;;
22160;SDS011;49035;48.812;11.762;2022-07-18T14:01:04;5.05;;;1.60;;
22160;SDS011;49035;48.812;11.762;2022-07-18T14:06:40;4.15;;;1.13;;
22160;SDS011;49035;48.812;11.762;2022-07-18T14:09:23;2.08;;;1.10;;
22160;SDS011;49035;48.812;11.762;2022-07-18T14:11:49;1.20;;;1.10;;
22160;SDS011;49035;48.812;11.762;2022-07-18T14:14:15;1.58;;;1.02;;
22160;SDS011;49035;48.812;11.762;2022-07-18T14:16:51;1.42;;;1.10;;
22160;SDS011;49035;48.812;11.762;2022-07-18T14:19:19;2.65;;;1.05;;
22160;SDS011;49035;48.812;11.762;2022-07-18T14:21:45;1.58;;;1.00;;
22160;SDS011;49035;48.812;11.762;2022-07-18T14:24:11;2.55;;;1.27;;
22160;SDS011;49035;48.812;11.762;2022-07-18T14:26:41;3.05;;;1.20;;
22160;SDS011;49035;48.812;11.762;2022-07-18T14:29:07;1.58;;;1.15;;
22160;SDS011;49035;48.812;11.762;2022-07-18T14:31:50;2.28;;;0.95;;
22160;SDS011;49035;48.812;11.762;2022-07-18T14:34:18;1.40;;;1.10;;
22160;SDS011;49035;48.812;11.762;2022-07-18T14:36:47;1.95;;;1.30;;
22160;SDS011;49035;48.812;11.762;2022-07-18T14:39:18;2.65;;;1.10;;
22160;SDS011;49035;48.812;11.762;2022-07-18T14:41:47;2.22;;;1.40;;
22160;SDS011;49035;48.812;11.762;2022-07-18T14:44:12;1.90;;;1.25;;
22160;SDS011;49035;48.812;11.762;2022-07-18T14:46:55;2.40;;;0.98;;
22160;SDS011;49035;48.812;11.762;2022-07-18T14:49:20;2.22;;;1.25;;
22160;SDS011;49035;48.812;11.762;2022-07-18T14:51:46;1.77;;;1.10;;
22160;SDS011;49035;48.812;11.762;2022-07-18T14:54:12;2.97;;;1.00;;
22160;SDS011;49035;48.812;11.762;2022-07-18T14:56:37;2.13;;;1.05;;
22160;SDS011;49035;48.812;11.762;2022-07-18T14:59:03;2.47;;;1.20;;
22160;SDS011;49035;48.812;11.762;2022-07-18T15:01:29;1.60;;;1.02;;
22160;SDS011;49035;48.812;11.762;2022-07-18T15:03:56;3.63;;;1.30;;
22160;SDS011;49035;48.812;11.762;2022-07-18T15:06:22;3.30;;;1.10;;
22160;SDS011;49035;48.812;11.762;2022-07-18T15:08:48;2.83;;;1.00;;
22160;SDS011;49035;48.812;11.762;2022-07-18T15:11:14;1.17;;;1.05;;
22160;SDS011;49035;48.812;11.762;2022-07-18T15:13:43;1.77;;;1.20;;
22160;SDS011;49035;48.812;11.762;2022-07-18T15:16:09;1.83;;;1.15;;
22160;SDS011;49035;48.812;11.762;2022-07-18T15:18:35;1.83;;;1.08;;
22160;SDS011;49035;48.812;11.762;2022-07-18T15:21:01;1.20;;;1.10;;
22160;SDS011;49035;48.812;11.762;2022-07-18T15:23:27;2.28;;;1.00;;
22160;SDS011;49035;48.812;11.762;2022-07-18T15:25:53;1.35;;;1.00;;
22160;SDS011;49035;48.812;11.762;2022-07-18T15:28:19;3.15;;;0.90;;
22160;SDS011;49035;48.812;11.762;2022-07-18T15:30:47;2.25;;;1.60;;
22160;SDS011;49035;48.812;11.762;2022-07-18T15:33:13;1.90;;;1.10;;
22160;SDS011;49035;48.812;11.762;2022-07-18T15:35:40;3.65;;;1.38;;
22160;SDS011;49035;48.812;11.762;2022-07-18T15:38:06;1.98;;;1.30;;
22160;SDS011;49035;48.812;11.762;2022-07-18T15:40:32;3.97;;;1.23;;
22160;SDS011;49035;48.812;11.762;2022-07-18T15:42:57;1.27;;;1.17;;
22160;SDS011;49035;48.812;11.762;2022-07-18T15:45:26;2.25;;;1.42;;